Time,TemperatureF,DewpointF,PressureIn,WindDirection,WindDirectionDegrees,WindSpeedMPH,WindSpeedGustMPH,Humidity,HourlyPrecipIn,Conditions,Clouds,dailyrainin,SoftwareType,DateUTC
2013-02-09 00:03:00,53.9,48.9,30.17,NNE,28,3.0,5.0,83,0.00,,,0.00,Wunderground v.1.15,2013-02-09 06:03:00,
2013-02-09 00:08:00,53.9,48.9,30.17,NNE,23,3.0,5.0,83,0.00,,,0.00,Wunderground v.1.15,2013-02-09 06:08:00,
2013-02-09 00:13:00,53.9,49.2,30.17,NNE,18,2.0,2.0,84,0.00,,,0.00,Wunderground v.1.15,2013-02-09 06:13:00,
2013-02-09 00:18:00,53.9,49.2,30.17,North,360,2.0,2.0,84,0.00,,,0.00,Wunderground v.1.15,2013-02-09 06:18:00,
2013-02-09 00:23:00,53.8,49.1,30.17,NE,35,3.0,3.0,84,0.00,,,0.00,Wunderground v.1.15,2013-02-09 06:23:00,
2013-02-09 00:28:00,53.8,49.1,30.17,North,355,3.0,3.0,84,0.00,,,0.00,Wunderground v.1.15,2013-02-09 06:28:00,
2013-02-09 03:22:00,48.2,44.8,30.16,NE,35,4.0,6.0,88,0.00,,,0.00,Wunderground v.1.15,2013-02-09 09:22:00,
2013-02-09 03:27:00,48.0,44.6,30.16,NNE,28,3.0,6.0,88,0.00,,,0.00,Wunderground v.1.15,2013-02-09 09:27:00,
2013-02-09 06:22:00,43.8,41.3,30.20,North,360,1.0,1.0,91,0.00,,,0.00,Wunderground v.1.15,2013-02-09 12:22:00,
2013-02-09 06:37:00,43.6,41.1,30.21,North,11,1.0,2.0,91,0.00,,,0.00,Wunderground v.1.15,2013-02-09 12:37:00,
2013-02-09 07:12:00,43.7,41.5,30.22,NE,44,0.0,2.0,92,0.00,,,0.00,Wunderground v.1.15,2013-02-09 13:12:00,
2013-02-09 07:22:00,44.0,41.8,30.22,North,5,1.0,1.0,92,0.00,,,0.00,Wunderground v.1.15,2013-02-09 13:22:00,
2013-02-09 09:06:00,47.6,43.6,30.24,East,88,1.0,2.0,86,0.00,,,0.00,Wunderground v.1.15,2013-02-09 15:06:00,
2013-02-09 09:11:00,48.1,43.8,30.24,NNE,16,1.0,2.0,85,0.00,,,0.00,Wunderground v.1.15,2013-02-09 15:11:00,
2013-02-09 09:18:00,48.7,44.1,30.24,ENE,57,1.0,1.0,84,0.00,,,0.00,Wunderground v.1.15,2013-02-09 15:18:00,
2013-02-09 09:23:00,49.0,44.4,30.24,SE,126,1.0,1.0,84,0.00,,,0.00,Wunderground v.1.15,2013-02-09 15:23:00,
2013-02-09 09:28:00,49.6,44.6,30.24,NE,56,1.0,1.0,83,0.00,,,0.00,Wunderground v.1.15,2013-02-09 15:28:00,
2013-02-09 09:33:00,50.2,44.9,30.24,NE,34,1.0,1.0,82,0.00,,,0.00,Wunderground v.1.15,2013-02-09 15:33:00,
2013-02-09 09:38:00,50.4,45.1,30.24,NE,34,1.0,2.0,82,0.00,,,0.00,Wunderground v.1.15,2013-02-09 15:38:00,
2013-02-09 09:43:00,51.0,45.7,30.24,ENE,76,1.0,2.0,82,0.00,,,0.00,Wunderground v.1.15,2013-02-09 15:43:00,
2013-02-09 09:53:00,52.3,46.0,30.24,ESE,108,0.0,3.0,79,0.00,,,0.00,Wunderground v.1.15,2013-02-09 15:53:00,
2013-02-09 09:58:00,52.1,46.1,30.24,ESE,103,1.0,2.0,80,0.00,,,0.00,Wunderground v.1.15,2013-02-09 15:58:00,
2013-02-09 10:03:00,52.1,46.1,30.24,East,94,1.0,1.0,80,0.00,,,0.00,Wunderground v.1.15,2013-02-09 16:03:00,
2013-02-09 10:08:00,52.3,46.3,30.23,East,89,1.0,1.0,80,0.00,,,0.00,Wunderground v.1.15,2013-02-09 16:08:00,
2013-02-09 10:13:00,52.7,46.7,30.23,ENE,72,1.0,1.0,80,0.00,,,0.00,Wunderground v.1.15,2013-02-09 16:13:00,
2013-02-09 10:18:00,53.0,47.0,30.23,NE,37,1.0,1.0,80,0.00,,,0.00,Wunderground v.1.15,2013-02-09 16:18:00,
2013-02-09 10:28:00,53.6,47.2,30.23,East,92,0.0,2.0,79,0.00,,,0.00,Wunderground v.1.15,2013-02-09 16:28:00,
2013-02-09 10:33:00,53.5,47.1,30.23,NNE,19,0.0,2.0,79,0.00,,,0.00,Wunderground v.1.15,2013-02-09 16:33:00,
2013-02-09 10:38:00,53.5,47.8,30.23,East,82,1.0,2.0,81,0.00,,,0.00,Wunderground v.1.15,2013-02-09 16:38:00,
2013-02-09 10:43:00,53.9,47.9,30.23,NE,36,1.0,1.0,80,0.00,,,0.00,Wunderground v.1.15,2013-02-09 16:43:00,
2013-02-09 10:48:00,54.2,48.2,30.22,East,82,0.0,1.0,80,0.00,,,0.00,Wunderground v.1.15,2013-02-09 16:48:00,
2013-02-09 10:58:00,55.0,48.6,30.22,North,9,1.0,1.0,79,0.00,,,0.00,Wunderground v.1.15,2013-02-09 16:58:00,
2013-02-09 11:03:00,55.3,49.2,30.22,NNE,22,0.0,0.0,80,0.00,,,0.00,Wunderground v.1.15,2013-02-09 17:03:00,
2013-02-09 11:12:00,56.9,50.1,30.22,SE,125,1.0,1.0,78,0.00,,,0.00,Wunderground v.1.15,2013-02-09 17:12:00,
2013-02-09 11:17:00,57.2,50.7,30.21,SE,128,1.0,1.0,79,0.00,,,0.00,Wunderground v.1.15,2013-02-09 17:17:00,
2013-02-09 11:22:00,57.4,50.6,30.21,SE,125,1.0,1.0,78,0.00,,,0.00,Wunderground v.1.15,2013-02-09 17:22:00,
2013-02-09 11:32:00,58.4,51.6,30.21,East,87,0.0,1.0,78,0.00,,,0.00,Wunderground v.1.15,2013-02-09 17:32:00,
2013-02-09 11:37:00,59.0,51.8,30.21,NE,42,0.0,1.0,77,0.00,,,0.00,Wunderground v.1.15,2013-02-09 17:37:00,
2013-02-09 11:42:00,59.6,52.4,30.21,ESE,107,1.0,1.0,77,0.00,,,0.00,Wunderground v.1.15,2013-02-09 17:42:00,
2013-02-09 11:47:00,59.5,52.3,30.21,North,9,1.0,1.0,77,0.00,,,0.00,Wunderground v.1.15,2013-02-09 17:47:00,
2013-02-09 11:52:00,59.8,52.6,30.21,NNE,14,1.0,1.0,77,0.00,,,0.00,Wunderground v.1.15,2013-02-09 17:52:00,
2013-02-09 11:57:00,60.2,53.0,30.21,East,83,1.0,1.0,77,0.00,,,0.00,Wunderground v.1.15,2013-02-09 17:57:00,
2013-02-09 12:07:00,60.7,53.4,30.20,SSE,156,1.0,1.0,77,0.00,,,0.00,Wunderground v.1.15,2013-02-09 18:07:00,
2013-02-09 12:12:00,62.0,54.3,30.19,SSE,165,1.0,1.0,76,0.00,,,0.00,Wunderground v.1.15,2013-02-09 18:12:00,
2013-02-09 12:17:00,63.0,54.9,30.19,ENE,78,0.0,1.0,75,0.00,,,0.00,Wunderground v.1.15,2013-02-09 18:17:00,
2013-02-09 12:22:00,63.3,54.1,30.18,SSW,196,1.0,4.0,72,0.00,,,0.00,Wunderground v.1.15,2013-02-09 18:22:00,
2013-02-09 12:27:00,63.2,54.0,30.18,SE,128,1.0,4.0,72,0.00,,,0.00,Wunderground v.1.15,2013-02-09 18:27:00,
2013-02-09 12:37:00,63.7,54.1,30.17,ESE,109,1.0,2.0,71,0.00,,,0.00,Wunderground v.1.15,2013-02-09 18:37:00,
2013-02-09 12:42:00,63.4,54.2,30.17,ESE,102,1.0,1.0,72,0.00,,,0.00,Wunderground v.1.15,2013-02-09 18:42:00,
2013-02-09 12:47:00,63.8,54.2,30.17,ENE,64,1.0,1.0,71,0.00,,,0.00,Wunderground v.1.15,2013-02-09 18:47:00,
2013-02-09 12:52:00,64.3,54.7,30.17,SE,141,1.0,1.0,71,0.00,,,0.00,Wunderground v.1.15,2013-02-09 18:52:00,
2013-02-09 12:57:00,65.0,54.6,30.16,East,99,1.0,2.0,69,0.00,,,0.00,Wunderground v.1.15,2013-02-09 18:57:00,
2013-02-09 13:02:00,65.0,55.0,30.16,SE,146,0.0,3.0,70,0.00,,,0.00,Wunderground v.1.15,2013-02-09 19:02:00,
2013-02-09 13:07:00,64.8,54.8,30.16,SSE,167,1.0,3.0,70,0.00,,,0.00,Wunderground v.1.15,2013-02-09 19:07:00,
2013-02-09 13:12:00,64.8,55.2,30.15,ESE,115,1.0,1.0,71,0.00,,,0.00,Wunderground v.1.15,2013-02-09 19:12:00,
2013-02-09 13:17:00,65.4,55.4,30.15,SSE,153,1.0,2.0,70,0.00,,,0.00,Wunderground v.1.15,2013-02-09 19:17:00,
2013-02-09 13:22:00,65.5,55.1,30.15,South,170,2.0,2.0,69,0.00,,,0.00,Wunderground v.1.15,2013-02-09 19:22:00,
2013-02-09 13:27:00,65.9,55.8,30.15,South,173,1.0,3.0,70,0.00,,,0.00,Wunderground v.1.15,2013-02-09 19:27:00,
2013-02-09 13:32:00,66.1,55.2,30.15,ENE,64,0.0,0.0,68,0.00,,,0.00,Wunderground v.1.15,2013-02-09 19:32:00,
2013-02-09 13:42:00,66.3,55.4,30.15,NE,53,1.0,1.0,68,0.00,,,0.00,Wunderground v.1.15,2013-02-09 19:42:00,
2013-02-09 13:47:00,66.2,55.3,30.14,SSW,202,1.0,1.0,68,0.00,,,0.00,Wunderground v.1.15,2013-02-09 19:47:00,
2013-02-09 13:52:00,66.1,55.2,30.14,ESE,119,2.0,2.0,68,0.00,,,0.00,Wunderground v.1.15,2013-02-09 19:52:00,
2013-02-09 13:57:00,66.3,55.8,30.14,SSE,159,1.0,2.0,69,0.00,,,0.00,Wunderground v.1.15,2013-02-09 19:57:00,
2013-02-09 14:02:00,66.6,55.7,30.14,SSW,202,1.0,1.0,68,0.00,,,0.00,Wunderground v.1.15,2013-02-09 20:02:00,
2013-02-09 14:12:00,66.6,55.7,30.13,South,176,0.0,1.0,68,0.00,,,0.00,Wunderground v.1.15,2013-02-09 20:12:00,
2013-02-09 14:17:00,66.2,55.7,30.13,SSE,165,0.0,1.0,69,0.00,,,0.00,Wunderground v.1.15,2013-02-09 20:17:00,
2013-02-09 14:22:00,65.9,55.8,30.13,South,184,0.0,1.0,70,0.00,,,0.00,Wunderground v.1.15,2013-02-09 20:22:00,
2013-02-09 14:27:00,65.8,55.7,30.12,South,169,0.0,1.0,70,0.00,,,0.00,Wunderground v.1.15,2013-02-09 20:27:00,
2013-02-09 14:32:00,65.4,55.7,30.13,South,191,0.0,0.0,71,0.00,,,0.00,Wunderground v.1.15,2013-02-09 20:32:00,
2013-02-09 14:37:00,65.3,55.7,30.13,South,190,0.0,0.0,71,0.00,,,0.00,Wunderground v.1.15,2013-02-09 20:37:00,
2013-02-09 14:42:00,65.1,55.8,30.12,South,187,0.0,0.0,72,0.00,,,0.00,Wunderground v.1.15,2013-02-09 20:42:00,
2013-02-09 14:52:00,65.0,55.8,30.12,SE,128,0.0,0.0,72,0.00,,,0.00,Wunderground v.1.15,2013-02-09 20:52:00,
2013-02-09 14:57:00,64.8,55.9,30.12,South,180,1.0,1.0,73,0.00,,,0.00,Wunderground v.1.15,2013-02-09 20:57:00,
2013-02-09 15:02:00,65.2,55.9,30.12,East,83,1.0,1.0,72,0.00,,,0.00,Wunderground v.1.15,2013-02-09 21:02:00,
2013-02-09 15:07:00,65.9,56.6,30.11,SSE,150,1.0,2.0,72,0.00,,,0.00,Wunderground v.1.15,2013-02-09 21:07:00,
2013-02-09 15:12:00,66.1,56.4,30.11,ESE,117,1.0,1.0,71,0.00,,,0.00,Wunderground v.1.15,2013-02-09 21:12:00,
2013-02-09 15:17:00,66.2,56.1,30.11,SW,226,1.0,2.0,70,0.00,,,0.00,Wunderground v.1.15,2013-02-09 21:17:00,
2013-02-09 15:22:00,66.4,56.7,30.11,SSW,196,1.0,2.0,71,0.00,,,0.00,Wunderground v.1.15,2013-02-09 21:22:00,
2013-02-09 15:27:00,66.5,56.4,30.11,SW,230,1.0,2.0,70,0.00,,,0.00,Wunderground v.1.15,2013-02-09 21:27:00,
2013-02-09 15:37:00,65.9,55.8,30.10,SSE,167,1.0,1.0,70,0.00,,,0.00,Wunderground v.1.15,2013-02-09 21:37:00,
2013-02-09 15:42:00,65.5,55.8,30.10,South,171,1.0,1.0,71,0.00,,,0.00,Wunderground v.1.15,2013-02-09 21:42:00,
2013-02-09 15:52:00,65.7,56.0,30.10,SSE,158,1.0,1.0,71,0.00,,,0.00,Wunderground v.1.15,2013-02-09 21:52:00,
2013-02-09 15:57:00,65.8,56.5,30.10,South,176,0.0,1.0,72,0.00,,,0.00,Wunderground v.1.15,2013-02-09 21:57:00,
2013-02-09 16:02:00,65.7,56.0,30.10,SE,136,0.0,3.0,71,0.00,,,0.00,Wunderground v.1.15,2013-02-09 22:02:00,
2013-02-09 16:07:00,65.5,55.8,30.10,East,93,1.0,3.0,71,0.00,,,0.00,Wunderground v.1.15,2013-02-09 22:07:00,
2013-02-09 16:12:00,65.3,56.0,30.10,SSE,156,1.0,1.0,72,0.00,,,0.00,Wunderground v.1.15,2013-02-09 22:12:00,
2013-02-09 16:17:00,65.2,56.3,30.10,SW,215,1.0,1.0,73,0.00,,,0.00,Wunderground v.1.15,2013-02-09 22:17:00,
2013-02-09 16:27:00,65.0,56.5,30.10,South,169,1.0,1.0,74,0.00,,,0.00,Wunderground v.1.15,2013-02-09 22:27:00,
2013-02-09 16:32:00,64.9,56.0,30.10,SE,140,1.0,1.0,73,0.00,,,0.00,Wunderground v.1.15,2013-02-09 22:32:00,
2013-02-09 16:37:00,64.6,55.7,30.09,SSE,161,1.0,1.0,73,0.00,,,0.00,Wunderground v.1.15,2013-02-09 22:37:00,
2013-02-09 16:42:00,64.4,55.6,30.09,South,172,1.0,1.0,73,0.00,,,0.00,Wunderground v.1.15,2013-02-09 22:42:00,
2013-02-09 16:47:00,64.2,55.7,30.10,South,171,0.0,1.0,74,0.00,,,0.00,Wunderground v.1.15,2013-02-09 22:47:00,
2013-02-09 16:57:00,63.2,56.2,30.10,South,178,1.0,1.0,78,0.00,,,0.00,Wunderground v.1.15,2013-02-09 22:57:00,
2013-02-09 17:02:00,62.6,56.0,30.10,SW,217,1.0,1.0,79,0.00,,,0.00,Wunderground v.1.15,2013-02-09 23:02:00,
2013-02-09 17:07:00,62.1,55.9,30.10,South,183,1.0,2.0,80,0.00,,,0.00,Wunderground v.1.15,2013-02-09 23:07:00,
2013-02-09 17:12:00,61.6,55.7,30.10,South,187,1.0,1.0,81,0.00,,,0.00,Wunderground v.1.15,2013-02-09 23:12:00,
2013-02-09 17:17:00,61.1,55.6,30.10,South,170,0.0,1.0,82,0.00,,,0.00,Wunderground v.1.15,2013-02-09 23:17:00,
2013-02-09 17:22:00,60.7,55.2,30.10,South,180,0.0,0.0,82,0.00,,,0.00,Wunderground v.1.15,2013-02-09 23:22:00,
2013-02-09 17:32:00,60.1,55.2,30.11,SE,143,0.0,0.0,84,0.00,,,0.00,Wunderground v.1.15,2013-02-09 23:32:00,
2013-02-09 17:37:00,59.8,55.0,30.11,SE,146,0.0,0.0,84,0.00,,,0.00,Wunderground v.1.15,2013-02-09 23:37:00,
2013-02-09 17:42:00,59.5,55.0,30.11,SW,215,0.0,0.0,85,0.00,,,0.00,Wunderground v.1.15,2013-02-09 23:42:00,
2013-02-09 17:47:00,59.2,54.7,30.11,South,173,0.0,0.0,85,0.00,,,0.00,Wunderground v.1.15,2013-02-09 23:47:00,
2013-02-09 17:52:00,59.0,54.8,30.11,SSW,192,0.0,0.0,86,0.00,,,0.00,Wunderground v.1.15,2013-02-09 23:52:00,
2013-02-09 18:02:00,58.7,54.8,30.11,South,173,0.0,0.0,87,0.00,,,0.00,Wunderground v.1.15,2013-02-10 00:02:00,
2013-02-09 18:07:00,58.4,54.5,30.11,South,173,0.0,0.0,87,0.00,,,0.00,Wunderground v.1.15,2013-02-10 00:07:00,
2013-02-09 18:12:00,58.2,54.7,30.12,South,173,0.0,0.0,88,0.00,,,0.00,Wunderground v.1.15,2013-02-10 00:12:00,
2013-02-09 18:17:00,58.0,54.5,30.12,South,173,0.0,0.0,88,0.00,,,0.00,Wunderground v.1.15,2013-02-10 00:17:00,
2013-02-09 18:22:00,57.7,54.5,30.12,South,175,0.0,0.0,89,0.00,,,0.00,Wunderground v.1.15,2013-02-10 00:22:00,
2013-02-09 18:27:00,57.4,54.2,30.12,South,172,0.0,0.0,89,0.00,,,0.00,Wunderground v.1.15,2013-02-10 00:27:00,
2013-02-09 18:33:00,57.2,54.3,30.12,South,172,0.0,0.0,90,0.00,,,0.00,Wunderground v.1.15,2013-02-10 00:33:00,
2013-02-09 18:38:00,57.1,54.2,30.12,South,172,0.0,0.0,90,0.00,,,0.00,Wunderground v.1.15,2013-02-10 00:38:00,
2013-02-09 18:43:00,56.9,54.3,30.12,South,173,0.0,0.0,91,0.00,,,0.00,Wunderground v.1.15,2013-02-10 00:43:00,
2013-02-09 18:52:00,56.6,54.0,30.12,SE,137,0.0,0.0,91,0.00,,,0.00,Wunderground v.1.15,2013-02-10 00:52:00,
2013-02-09 18:57:00,56.6,54.3,30.12,SE,134,0.0,0.0,92,0.00,,,0.00,Wunderground v.1.15,2013-02-10 00:57:00,
2013-02-09 19:03:00,56.7,54.4,30.12,SE,134,0.0,0.0,92,0.00,,,0.00,Wunderground v.1.15,2013-02-10 01:03:00,
2013-02-09 19:12:00,56.9,54.6,30.12,SSE,163,0.0,0.0,92,0.00,,,0.00,Wunderground v.1.15,2013-02-10 01:12:00,
2013-02-09 19:18:00,57.1,55.1,30.12,South,172,0.0,3.0,93,0.00,,,0.00,Wunderground v.1.15,2013-02-10 01:18:00,
2013-02-09 19:23:00,57.3,55.0,30.12,SSE,159,1.0,2.0,92,0.00,,,0.00,Wunderground v.1.15,2013-02-10 01:23:00,
2013-02-09 19:28:00,57.5,55.2,30.13,SSE,167,1.0,2.0,92,0.00,,,0.00,Wunderground v.1.15,2013-02-10 01:28:00,
2013-02-09 19:38:00,57.5,55.2,30.13,East,99,1.0,1.0,92,0.00,,,0.00,Wunderground v.1.15,2013-02-10 01:38:00,
2013-02-09 19:43:00,57.4,55.1,30.13,ESE,110,1.0,1.0,92,0.00,,,0.00,Wunderground v.1.15,2013-02-10 01:43:00,
2013-02-09 19:48:00,57.3,55.0,30.13,ESE,110,0.0,1.0,92,0.00,,,0.00,Wunderground v.1.15,2013-02-10 01:48:00,
2013-02-09 19:53:00,57.2,54.9,30.13,ESE,108,0.0,0.0,92,0.00,,,0.00,Wunderground v.1.15,2013-02-10 01:53:00,
2013-02-09 19:58:00,57.1,54.8,30.13,ESE,109,0.0,0.0,92,0.00,,,0.00,Wunderground v.1.15,2013-02-10 01:58:00,
2013-02-09 20:03:00,56.9,54.6,30.13,ESE,112,0.0,1.0,92,0.00,,,0.00,Wunderground v.1.15,2013-02-10 02:03:00,
2013-02-09 20:08:00,56.9,54.9,30.13,East,91,0.0,1.0,93,0.00,,,0.00,Wunderground v.1.15,2013-02-10 02:08:00,
2013-02-09 20:13:00,56.9,54.9,30.13,East,91,0.0,0.0,93,0.00,,,0.00,Wunderground v.1.15,2013-02-10 02:13:00,
2013-02-09 20:18:00,56.8,54.8,30.13,East,96,0.0,1.0,93,0.00,,,0.00,Wunderground v.1.15,2013-02-10 02:18:00,
2013-02-09 20:23:00,56.8,54.8,30.13,East,96,0.0,0.0,93,0.00,,,0.00,Wunderground v.1.15,2013-02-10 02:23:00,
2013-02-09 20:28:00,56.7,54.7,30.13,East,101,0.0,0.0,93,0.00,,,0.00,Wunderground v.1.15,2013-02-10 02:28:00,
2013-02-09 20:33:00,56.7,54.7,30.13,SE,140,1.0,1.0,93,0.00,,,0.00,Wunderground v.1.15,2013-02-10 02:33:00,
2013-02-09 20:43:00,56.7,55.0,30.12,ENE,76,0.0,0.0,94,0.00,,,0.00,Wunderground v.1.15,2013-02-10 02:43:00,
2013-02-09 20:48:00,56.7,55.0,30.12,SE,127,1.0,1.0,94,0.00,,,0.00,Wunderground v.1.15,2013-02-10 02:48:00,
2013-02-09 20:53:00,56.7,55.0,30.12,ESE,110,1.0,1.0,94,0.00,,,0.00,Wunderground v.1.15,2013-02-10 02:53:00,
2013-02-09 20:58:00,56.7,55.0,30.12,East,99,1.0,5.0,94,0.00,,,0.00,Wunderground v.1.15,2013-02-10 02:58:00,
2013-02-09 21:03:00,56.7,55.0,30.12,SSE,148,1.0,1.0,94,0.00,,,0.00,Wunderground v.1.15,2013-02-10 03:03:00,
2013-02-09 21:08:00,56.8,55.1,30.12,ESE,121,1.0,1.0,94,0.00,,,0.00,Wunderground v.1.15,2013-02-10 03:08:00,
2013-02-09 21:18:00,56.8,55.1,30.11,ESE,103,0.0,1.0,94,0.00,,,0.00,Wunderground v.1.15,2013-02-10 03:18:00,
2013-02-09 21:23:00,56.8,55.1,30.11,East,94,1.0,1.0,94,0.00,,,0.00,Wunderground v.1.15,2013-02-10 03:23:00,
2013-02-09 21:28:00,56.9,55.2,30.11,SE,142,1.0,1.0,94,0.00,,,0.00,Wunderground v.1.15,2013-02-10 03:28:00,
2013-02-09 21:33:00,56.8,55.1,30.11,SE,127,1.0,1.0,94,0.00,,,0.00,Wunderground v.1.15,2013-02-10 03:33:00,
2013-02-09 21:38:00,56.8,55.1,30.11,ESE,102,0.0,2.0,94,0.00,,,0.00,Wunderground v.1.15,2013-02-10 03:38:00,
2013-02-09 21:48:00,56.6,54.9,30.11,ESE,105,1.0,1.0,94,0.00,,,0.00,Wunderground v.1.15,2013-02-10 03:48:00,
2013-02-09 21:53:00,56.6,54.9,30.11,East,89,1.0,2.0,94,0.00,,,0.00,Wunderground v.1.15,2013-02-10 03:53:00,
2013-02-09 21:58:00,56.6,54.9,30.10,SE,128,1.0,2.0,94,0.00,,,0.00,Wunderground v.1.15,2013-02-10 03:58:00,
2013-02-09 22:03:00,56.6,54.9,30.10,East,96,1.0,1.0,94,0.00,,,0.00,Wunderground v.1.15,2013-02-10 04:03:00,
2013-02-09 22:08:00,56.6,54.9,30.10,SE,126,1.0,1.0,94,0.00,,,0.00,Wunderground v.1.15,2013-02-10 04:08:00,
2013-02-09 22:13:00,56.6,54.9,30.10,SE,132,1.0,1.0,94,0.00,,,0.00,Wunderground v.1.15,2013-02-10 04:13:00,
2013-02-09 22:23:00,56.6,54.9,30.10,ESE,113,0.0,0.0,94,0.00,,,0.00,Wunderground v.1.15,2013-02-10 04:23:00,
2013-02-09 22:28:00,56.6,54.9,30.10,East,98,1.0,1.0,94,0.00,,,0.00,Wunderground v.1.15,2013-02-10 04:28:00,
2013-02-09 22:33:00,56.6,54.9,30.10,East,101,1.0,1.0,94,0.00,,,0.00,Wunderground v.1.15,2013-02-10 04:33:00,
2013-02-09 22:38:00,56.6,54.9,30.10,ESE,107,1.0,1.0,94,0.00,,,0.00,Wunderground v.1.15,2013-02-10 04:38:00,
2013-02-09 22:43:00,56.6,54.9,30.10,East,101,1.0,1.0,94,0.00,,,0.00,Wunderground v.1.15,2013-02-10 04:43:00,
2013-02-09 22:53:00,56.6,54.9,30.09,ENE,72,0.0,1.0,94,0.00,,,0.00,Wunderground v.1.15,2013-02-10 04:53:00,
2013-02-09 22:58:00,56.6,54.9,30.09,ESE,120,0.0,1.0,94,0.00,,,0.00,Wunderground v.1.15,2013-02-10 04:58:00,
2013-02-09 23:03:00,56.6,54.9,30.09,East,99,1.0,1.0,94,0.00,,,0.00,Wunderground v.1.15,2013-02-10 05:03:00,
2013-02-09 23:07:00,56.6,54.9,30.09,SE,134,0.0,1.0,94,0.00,,,0.00,Wunderground v.1.15,2013-02-10 05:07:00,
2013-02-09 23:12:00,56.6,54.9,30.09,ESE,107,0.0,0.0,94,0.00,,,0.00,Wunderground v.1.15,2013-02-10 05:12:00,
2013-02-09 23:18:00,56.8,55.1,30.09,ESE,106,1.0,2.0,94,0.00,,,0.00,Wunderground v.1.15,2013-02-10 05:18:00,
2013-02-09 23:28:00,57.0,55.0,30.09,East,97,1.0,2.0,93,0.00,,,0.00,Wunderground v.1.15,2013-02-10 05:28:00,
2013-02-09 23:33:00,57.0,55.0,30.09,East,96,1.0,1.0,93,0.00,,,0.00,Wunderground v.1.15,2013-02-10 05:33:00,
2013-02-09 23:38:00,57.1,55.1,30.09,ESE,114,1.0,1.0,93,0.00,,,0.00,Wunderground v.1.15,2013-02-10 05:38:00,
2013-02-09 23:43:00,57.1,55.1,30.08,ESE,102,1.0,1.0,93,0.00,,,0.00,Wunderground v.1.15,2013-02-10 05:43:00,
2013-02-09 23:48:00,57.2,55.2,30.09,ESE,107,1.0,2.0,93,0.00,,,0.00,Wunderground v.1.15,2013-02-10 05:48:00,
2013-02-09 23:58:00,57.2,55.2,30.08,ESE,119,0.0,1.0,93,0.00,,,0.00,Wunderground v.1.15,2013-02-10 05:58:00,